createdAt,value
2022-11-27T00:02:44.785Z,12.30
2022-11-27T00:07:46.150Z,12.88
2022-11-27T00:12:47.402Z,12.60
2022-11-27T00:17:48.663Z,12.47
2022-11-27T00:22:49.936Z,13.63
2022-11-27T00:27:51.156Z,13.02
2022-11-27T00:32:52.384Z,12.15
2022-11-27T00:37:53.631Z,12.80
2022-11-27T00:42:54.921Z,12.20
2022-11-27T00:47:56.146Z,12.10
2022-11-27T00:53:00.657Z,12.88
2022-11-27T00:58:01.929Z,9.65
2022-11-27T01:03:03.270Z,11.60
2022-11-27T01:08:04.695Z,10.80
2022-11-27T01:13:05.947Z,11.23
2022-11-27T01:18:07.196Z,11.73
2022-11-27T01:23:08.421Z,11.90
2022-11-27T01:28:09.631Z,10.85
2022-11-27T01:33:11.149Z,10.90
2022-11-27T01:38:12.418Z,10.75
2022-11-27T01:43:16.854Z,12.38
2022-11-27T01:48:18.175Z,10.40
2022-11-27T01:53:19.455Z,10.05
2022-11-27T01:58:24.996Z,11.20
2022-11-27T02:03:26.394Z,10.60
2022-11-27T02:08:27.864Z,9.52
2022-11-27T02:13:31.912Z,9.27
2022-11-27T02:18:38.194Z,9.80
2022-11-27T02:23:39.424Z,7.93
2022-11-27T02:28:59.153Z,6.45
2022-11-27T02:34:06.965Z,5.53
2022-11-27T02:39:10.363Z,7.63
2022-11-27T02:44:11.739Z,8.43
2022-11-27T02:49:14.587Z,7.40
2022-11-27T02:54:18.101Z,7.55
2022-11-27T02:59:20.150Z,7.63
2022-11-27T03:04:25.587Z,7.05
2022-11-27T03:09:34.276Z,6.43
2022-11-27T03:14:36.449Z,5.97
2022-11-27T03:19:56.579Z,5.78
2022-11-27T03:24:58.656Z,5.32
2022-11-27T03:30:01.223Z,5.72
2022-11-27T03:35:03.089Z,5.82
2022-11-27T03:40:05.155Z,5.40
2022-11-27T03:45:18.359Z,5.22
2022-11-27T03:50:35.006Z,3.90
2022-11-27T03:55:48.425Z,3.53
2022-11-27T04:00:50.846Z,3.50
2022-11-27T04:05:52.143Z,3.80
2022-11-27T04:10:53.399Z,4.03
2022-11-27T04:15:54.708Z,4.07
2022-11-27T04:20:56.119Z,4.13
2022-11-27T04:25:57.359Z,3.80
2022-11-27T04:30:58.812Z,3.60
2022-11-27T04:36:00.185Z,3.60
2022-11-27T04:41:01.523Z,4.00
2022-11-27T04:46:02.942Z,3.85
2022-11-27T04:51:04.322Z,4.07
2022-11-27T04:56:05.699Z,4.30
2022-11-27T05:01:08.043Z,4.88
2022-11-27T05:06:09.800Z,4.85
2022-11-27T05:11:12.594Z,3.97
2022-11-27T05:16:13.900Z,4.10
2022-11-27T05:21:15.248Z,3.97
2022-11-27T05:26:16.499Z,4.82
2022-11-27T05:31:17.879Z,3.40
2022-11-27T05:36:19.211Z,3.50
2022-11-27T05:41:20.678Z,4.05
2022-11-27T05:46:22.837Z,4.47
2022-11-27T05:51:24.776Z,3.70
2022-11-27T05:56:26.037Z,5.35
2022-11-27T06:01:27.356Z,6.65
2022-11-27T06:06:28.693Z,3.67
2022-11-27T06:11:29.935Z,5.60
2022-11-27T06:16:31.182Z,6.05
2022-11-27T06:21:32.484Z,4.80
2022-11-27T06:26:34.282Z,3.88
2022-11-27T06:31:36.041Z,3.53
2022-11-27T06:36:38.091Z,3.97
2022-11-27T06:41:39.350Z,3.55
2022-11-27T06:46:40.636Z,3.72
2022-11-27T06:51:42.022Z,3.63
2022-11-27T06:56:43.286Z,3.55
2022-11-27T07:01:44.694Z,3.57
2022-11-27T07:06:46.059Z,3.65
2022-11-27T07:11:47.339Z,3.83
2022-11-27T07:16:48.629Z,3.88
2022-11-27T07:21:49.905Z,4.50
2022-11-27T07:26:51.181Z,4.47
2022-11-27T07:31:52.608Z,4.07
2022-11-27T07:36:53.945Z,5.45
2022-11-27T07:41:57.382Z,5.28
2022-11-27T07:47:01.270Z,5.68
2022-11-27T07:52:02.812Z,4.50
2022-11-27T07:57:04.144Z,4.90
2022-11-27T08:02:05.370Z,5.43
2022-11-27T08:07:06.681Z,5.43
2022-11-27T08:12:07.959Z,4.32
2022-11-27T08:17:12.219Z,4.10
2022-11-27T08:22:14.179Z,6.13
2022-11-27T08:27:16.336Z,5.93
2022-11-27T08:32:17.626Z,4.82
2022-11-27T08:37:18.885Z,5.20
2022-11-27T08:42:20.195Z,5.03
2022-11-27T08:47:21.470Z,4.20
2022-11-27T08:52:23.069Z,4.10
2022-11-27T08:57:25.670Z,5.53
2022-11-27T09:02:27.083Z,5.75
2022-11-27T09:07:28.380Z,4.90
2022-11-27T09:12:29.752Z,5.80
2022-11-27T09:17:31.046Z,4.82
2022-11-27T09:22:33.178Z,5.20
2022-11-27T09:27:34.436Z,6.03
2022-11-27T09:32:35.718Z,4.97
2022-11-27T09:37:36.949Z,4.53
2022-11-27T09:42:40.528Z,5.07
2022-11-27T09:47:50.111Z,5.00
2022-11-27T09:53:04.001Z,4.38
2022-11-27T09:58:17.897Z,4.60
2022-11-27T10:03:24.195Z,4.40
2022-11-27T10:08:37.164Z,4.50
2022-11-27T10:13:55.690Z,4.50
2022-11-27T10:19:08.230Z,4.57
2022-11-27T10:24:28.544Z,4.10
2022-11-27T10:29:56.531Z,4.65
2022-11-27T10:35:01.079Z,4.25
2022-11-27T10:40:02.375Z,7.85
2022-11-27T10:45:05.744Z,4.30
2022-11-27T10:50:13.463Z,4.20
2022-11-27T10:55:18.683Z,4.00
2022-11-27T11:00:21.492Z,4.30
2022-11-27T11:05:41.370Z,5.93
2022-11-27T11:10:51.643Z,5.32
2022-11-27T11:16:05.354Z,5.70
2022-11-27T11:21:09.366Z,5.00
2022-11-27T11:26:22.951Z,4.00
2022-11-27T11:31:32.772Z,4.35
2022-11-27T11:36:35.206Z,4.30
2022-11-27T11:41:39.567Z,4.10
2022-11-27T11:46:40.813Z,6.93
2022-11-27T11:51:50.690Z,5.80
2022-11-27T11:56:52.542Z,5.93
2022-11-27T12:02:03.859Z,6.60
2022-11-27T12:07:20.455Z,7.37
2022-11-27T12:12:27.617Z,7.38
2022-11-27T12:17:31.914Z,7.25
2022-11-27T12:22:45.443Z,7.75
2022-11-27T12:28:06.157Z,7.25
2022-11-27T12:33:16.534Z,8.00
2022-11-27T12:38:40.572Z,7.25
2022-11-27T12:43:46.307Z,7.63
2022-11-27T12:48:53.316Z,8.25
2022-11-27T12:53:57.574Z,8.27
2022-11-27T12:59:01.843Z,7.43
2022-11-27T13:04:18.859Z,8.98
2022-11-27T13:09:25.087Z,8.15
2022-11-27T13:14:27.249Z,7.10
2022-11-27T13:19:39.873Z,7.57
2022-11-27T13:24:41.384Z,6.27
2022-11-27T13:29:46.242Z,7.88
2022-11-27T13:34:48.193Z,7.28
2022-11-27T13:39:49.502Z,22.63
2022-11-27T13:44:53.964Z,10.57
2022-11-27T13:50:12.500Z,10.17
2022-11-27T13:55:22.182Z,11.48
2022-11-27T14:00:40.147Z,11.18
2022-11-27T14:05:44.869Z,14.07
2022-11-27T14:10:51.234Z,10.63
2022-11-27T14:16:01.778Z,8.87
2022-11-27T14:21:04.195Z,8.80
2022-11-27T14:26:20.541Z,9.23
2022-11-27T14:31:27.525Z,9.75
2022-11-27T14:36:35.913Z,8.77
2022-11-27T14:41:37.166Z,9.13
2022-11-27T14:46:38.477Z,7.88
2022-11-27T14:51:39.772Z,8.30
2022-11-27T14:56:41.785Z,8.40
2022-11-27T15:01:43.481Z,8.90
2022-11-27T15:06:46.441Z,10.53
2022-11-27T15:11:56.095Z,14.05
2022-11-27T15:16:57.913Z,11.57
2022-11-27T15:21:59.464Z,12.13
2022-11-27T15:27:20.285Z,11.85
2022-11-27T15:32:25.626Z,11.87
2022-11-27T15:37:27.157Z,11.73
2022-11-27T15:42:28.646Z,11.88
2022-11-27T15:47:31.710Z,12.13
2022-11-27T15:52:33.598Z,12.48
2022-11-27T15:57:34.897Z,12.73
2022-11-27T16:02:36.682Z,13.60
2022-11-27T16:07:38.041Z,33.15
2022-11-27T16:12:39.752Z,13.63
2022-11-27T16:17:41.123Z,15.55
2022-11-27T16:22:42.415Z,13.03
2022-11-27T16:27:43.710Z,15.68
2022-11-27T16:32:45.014Z,10.90
2022-11-27T16:37:46.259Z,11.00
2022-11-27T16:42:47.522Z,11.25
2022-11-27T16:47:48.793Z,13.83
2022-11-27T16:52:54.455Z,12.55
2022-11-27T16:57:56.032Z,12.57
2022-11-27T17:02:57.447Z,15.23
2022-11-27T17:07:58.781Z,13.20
2022-11-27T17:13:00.067Z,10.97
2022-11-27T17:18:01.417Z,11.65
2022-11-27T17:23:02.708Z,15.00
2022-11-27T17:28:04.070Z,18.35
2022-11-27T17:33:05.376Z,16.23
2022-11-27T17:38:06.651Z,15.87
2022-11-27T17:43:07.948Z,16.60
2022-11-27T17:48:09.272Z,15.70
2022-11-27T17:53:10.557Z,13.88
2022-11-27T17:58:11.929Z,13.80
2022-11-27T18:03:13.455Z,12.43
2022-11-27T18:08:14.701Z,10.57
2022-11-27T18:13:15.979Z,8.88
2022-11-27T18:18:17.556Z,12.77
2022-11-27T18:23:18.893Z,12.32
2022-11-27T18:28:20.167Z,11.57
2022-11-27T18:33:21.433Z,13.02
2022-11-27T18:38:22.716Z,13.80
2022-11-27T18:43:24.024Z,14.45
2022-11-27T18:48:25.876Z,15.30
2022-11-27T18:53:27.135Z,17.13
2022-11-27T18:58:30.791Z,13.50
2022-11-27T19:03:32.105Z,12.07
2022-11-27T19:08:33.405Z,17.25
2022-11-27T19:13:35.205Z,14.00
2022-11-27T19:18:36.931Z,16.10
2022-11-27T19:23:39.903Z,12.55
2022-11-27T19:28:41.746Z,11.63
2022-11-27T19:33:43.485Z,12.65
2022-11-27T19:38:44.825Z,15.23
2022-11-27T19:43:47.629Z,15.33
2022-11-27T19:48:49.069Z,15.43
2022-11-27T19:53:50.459Z,17.45
2022-11-27T19:58:51.725Z,12.10
2022-11-27T20:03:53.010Z,10.02
2022-11-27T20:08:57.619Z,11.80
2022-11-27T20:13:59.625Z,18.60
2022-11-27T20:19:01.695Z,11.75
2022-11-27T20:24:03.206Z,19.05
2022-11-27T20:29:04.779Z,16.63
2022-11-27T20:34:06.824Z,13.07
2022-11-27T20:39:08.211Z,14.13
2022-11-27T20:44:11.403Z,13.65
2022-11-27T20:49:12.640Z,14.20
2022-11-27T20:54:13.884Z,13.85
2022-11-27T20:59:15.129Z,13.70
2022-11-27T21:04:18.153Z,14.88
2022-11-27T21:09:19.804Z,12.88
2022-11-27T21:14:21.133Z,13.63
2022-11-27T21:19:25.949Z,12.77
2022-11-27T21:24:28.444Z,12.60
2022-11-27T21:29:30.685Z,13.63
2022-11-27T21:34:32.269Z,14.25
2022-11-27T21:39:33.560Z,11.52
2022-11-27T21:44:34.784Z,10.73
2022-11-27T21:49:36.063Z,11.67
2022-11-27T21:54:37.335Z,10.80
2022-11-27T21:59:38.613Z,12.93
2022-11-27T22:04:40.092Z,11.30
2022-11-27T22:09:41.665Z,14.10
2022-11-27T22:14:43.140Z,10.97
2022-11-27T22:19:45.254Z,11.45
2022-11-27T22:24:46.493Z,10.50
2022-11-27T22:29:47.751Z,11.30
2022-11-27T22:34:50.449Z,10.23
2022-11-27T22:39:51.675Z,10.60
2022-11-27T22:44:52.951Z,10.93
2022-11-27T22:49:54.219Z,11.02
2022-11-27T22:54:55.565Z,9.88
2022-11-27T22:59:56.875Z,11.57
2022-11-27T23:04:58.161Z,10.10
2022-11-27T23:09:59.384Z,9.65
2022-11-27T23:15:00.739Z,9.80
2022-11-27T23:20:02.040Z,9.70
2022-11-27T23:25:03.361Z,10.13
2022-11-27T23:30:05.045Z,9.97
2022-11-27T23:35:06.528Z,9.50
2022-11-27T23:40:08.134Z,10.13
2022-11-27T23:45:09.680Z,9.73
2022-11-27T23:50:11.105Z,8.80
2022-11-27T23:55:13.079Z,7.93
